Time;durP1;ratioP1;P1;durP2;ratioP2;P2;SDS_P1;SDS_P2;PMS_P1;PMS_P2;Temp;Humidity;BMP_temperature;BMP_pressure;BME280_temperature;BME280_humidity;BME280_pressure;Samples;Min_cycle;Max_cycle;Signal;HPM_P1;HPM_P2
2023/04/23 00:01:24;;;;;;;0.60;0.60;;;;;;;15.16;66.82;94872.09;4409078;32;20196;-61
2023/04/23 00:03:50;;;;;;;0.87;0.80;;;;;;;15.16;66.27;94870.19;4392455;32;20207;-61
2023/04/23 00:06:16;;;;;;;2.80;0.97;;;;;;;15.21;66.15;94867.28;4394408;32;20188;-61
2023/04/23 00:08:42;;;;;;;0.30;0.30;;;;;;;15.15;67.04;94868.62;4389756;32;20198;-61
2023/04/23 00:11:08;;;;;;;1.77;1.27;;;;;;;15.10;67.00;94866.19;4386894;32;20181;-61
2023/04/23 00:13:34;;;;;;;0.70;0.70;;;;;;;15.10;66.66;94856.28;4388025;32;20263;-61
2023/04/23 00:16:00;;;;;;;0.47;0.47;;;;;;;15.02;66.82;94854.47;4393740;32;20192;-61
2023/04/23 00:18:26;;;;;;;0.40;0.40;;;;;;;14.99;67.09;94855.13;4392002;32;20188;-61
2023/04/23 00:20:51;;;;;;;0.40;0.40;;;;;;;14.99;67.13;94860.47;4395841;32;20255;-61
2023/04/23 00:23:17;;;;;;;0.57;0.57;;;;;;;15.00;66.72;94856.69;4386374;32;20211;-61
2023/04/23 00:25:42;;;;;;;0.80;0.80;;;;;;;15.01;66.96;94862.81;4388881;32;20196;-61
2023/04/23 00:28:07;;;;;;;0.37;0.37;;;;;;;15.02;67.11;94853.69;4391895;32;20252;-61
2023/04/23 00:30:33;;;;;;;0.80;0.80;;;;;;;15.03;67.09;94845.34;4387474;32;20244;-61
2023/04/23 00:32:58;;;;;;;0.63;0.63;;;;;;;14.99;67.62;94849.78;4382851;32;20207;-61
2023/04/23 00:35:23;;;;;;;0.30;0.30;;;;;;;14.94;67.88;94841.22;4398360;32;20249;-61
2023/04/23 00:37:49;;;;;;;1.07;1.07;;;;;;;14.92;67.59;94848.78;4387540;32;20255;-61
2023/04/23 00:40:14;;;;;;;0.40;0.40;;;;;;;14.91;68.31;94842.66;4391604;32;20208;-61
2023/04/23 00:42:40;;;;;;;0.30;0.30;;;;;;;14.94;67.96;94846.56;4394671;32;20207;-61
2023/04/23 00:45:07;;;;;;;0.80;0.80;;;;;;;14.91;68.57;94840.00;4388672;32;20208;-61
2023/04/23 00:47:33;;;;;;;1.53;0.93;;;;;;;14.92;68.44;94841.56;4383978;32;20192;-61
2023/04/23 00:49:59;;;;;;;0.70;0.70;;;;;;;14.91;68.43;94841.91;4381396;32;20215;-61
2023/04/23 00:52:24;;;;;;;0.97;0.97;;;;;;;14.85;69.12;94845.88;4385720;32;20202;-61
2023/04/23 00:54:49;;;;;;;0.70;0.57;;;;;;;14.91;68.86;94836.56;4390558;32;20177;-61
2023/04/23 00:57:15;;;;;;;1.03;0.93;;;;;;;14.88;69.25;94827.31;4391419;32;20196;-61
2023/04/23 00:59:41;;;;;;;0.53;0.53;;;;;;;14.87;69.36;94832.97;4387670;32;20236;-61
2023/04/23 01:02:06;;;;;;;1.20;1.17;;;;;;;14.82;69.95;94839.31;4386680;32;20183;-61
2023/04/23 01:04:33;;;;;;;8.70;1.13;;;;;;;14.83;69.87;94845.44;4401039;32;20191;-61
2023/04/23 01:06:59;;;;;;;0.70;0.70;;;;;;;14.88;69.83;94842.56;4387961;32;20257;-61
2023/04/23 01:09:26;;;;;;;0.60;0.60;;;;;;;14.81;70.43;94831.63;4395585;32;20203;-61
2023/04/23 01:11:52;;;;;;;0.77;0.77;;;;;;;14.88;70.02;94834.53;4388550;32;20263;-61
2023/04/23 01:14:17;;;;;;;0.50;0.50;;;;;;;14.85;70.30;94833.31;4388207;32;20193;-61
2023/04/23 01:16:43;;;;;;;1.20;1.00;;;;;;;14.85;69.91;94835.97;4391203;32;20180;-61
2023/04/23 01:19:09;;;;;;;0.57;0.57;;;;;;;14.80;70.37;94833.50;4388083;32;20208;-61
2023/04/23 01:21:36;;;;;;;0.50;0.50;;;;;;;14.82;70.72;94833.97;4394882;32;20216;-61
2023/04/23 01:24:03;;;;;;;0.67;0.67;;;;;;;14.86;70.13;94834.09;4390012;32;20212;-62
2023/04/23 01:26:29;;;;;;;0.60;0.60;;;;;;;14.87;69.29;94839.09;4403770;32;20248;-61
2023/04/23 01:28:54;;;;;;;1.20;1.10;;;;;;;14.86;69.40;94832.19;4391698;32;20197;-61
2023/04/23 01:31:20;;;;;;;0.83;0.70;;;;;;;14.85;69.74;94827.19;4395636;32;20245;-61
2023/04/23 01:33:48;;;;;;;0.50;0.50;;;;;;;14.83;69.75;94824.84;4392830;32;20196;-61
2023/04/23 01:36:13;;;;;;;0.50;0.50;;;;;;;14.80;69.71;94820.16;4382180;32;20224;-61
2023/04/23 01:38:39;;;;;;;0.87;0.87;;;;;;;14.78;70.04;94825.06;4383856;32;20196;-61
2023/04/23 01:41:04;;;;;;;0.43;0.43;;;;;;;14.81;69.73;94819.06;4393026;32;20210;-61
2023/04/23 01:43:30;;;;;;;0.50;0.50;;;;;;;14.82;69.89;94823.28;4391204;32;20225;-61
2023/04/23 01:45:57;;;;;;;0.67;0.67;;;;;;;14.79;69.86;94818.59;4386798;32;20275;-61
2023/04/23 01:48:23;;;;;;;0.77;0.70;;;;;;;14.73;70.22;94822.62;4384732;32;20212;-61
2023/04/23 01:50:49;;;;;;;0.70;0.70;;;;;;;14.70;70.26;94828.63;4383116;32;20184;-61
2023/04/23 01:53:15;;;;;;;0.43;0.43;;;;;;;14.68;70.63;94822.81;4386918;32;20254;-61
2023/04/23 01:55:42;;;;;;;0.60;0.60;;;;;;;14.73;70.67;94826.06;4388385;32;20251;-61
2023/04/23 01:58:07;;;;;;;0.70;0.70;;;;;;;14.77;70.55;94826.16;4386472;32;20188;-61
2023/04/23 02:00:32;;;;;;;0.80;0.80;;;;;;;14.69;70.79;94829.72;4386599;32;20233;-61
2023/04/23 02:02:58;;;;;;;0.40;0.40;;;;;;;14.72;70.47;94826.41;4393538;32;20203;-61
2023/04/23 02:05:24;;;;;;;0.77;0.77;;;;;;;14.74;69.85;94832.19;4401551;32;20199;-61
2023/04/23 02:07:51;;;;;;;0.97;0.60;;;;;;;14.76;69.63;94830.72;4390880;32;20209;-61
2023/04/23 02:10:17;;;;;;;0.87;0.83;;;;;;;14.69;69.75;94835.06;4392797;32;20195;-61
2023/04/23 02:12:43;;;;;;;0.83;0.83;;;;;;;14.69;69.89;94835.84;4400277;32;20202;-61
2023/04/23 02:15:10;;;;;;;0.80;0.77;;;;;;;14.75;69.94;94839.09;4400583;32;20251;-61
2023/04/23 02:17:35;;;;;;;0.93;0.93;;;;;;;14.71;71.13;94833.63;4395575;32;20242;-61
2023/04/23 02:20:01;;;;;;;0.60;0.60;;;;;;;14.58;72.77;94836.59;4394701;32;20196;-61
2023/04/23 02:22:27;;;;;;;0.57;0.57;;;;;;;14.57;73.41;94837.69;4393548;32;20252;-61
2023/04/23 02:24:53;;;;;;;0.97;0.97;;;;;;;14.65;73.87;94828.81;4395704;32;20210;-61
2023/04/23 02:27:19;;;;;;;2.50;1.33;;;;;;;14.48;75.62;94839.69;4393299;32;20196;-61
2023/04/23 02:29:45;;;;;;;1.90;1.43;;;;;;;14.49;75.90;94830.56;4390924;32;20198;-61
2023/04/23 02:32:10;;;;;;;0.63;0.63;;;;;;;14.47;76.14;94827.44;4380476;32;20228;-61
2023/04/23 02:34:36;;;;;;;0.77;0.77;;;;;;;14.42;76.33;94826.53;4389455;32;20192;-61
2023/04/23 02:37:03;;;;;;;0.73;0.73;;;;;;;14.43;75.92;94825.44;4398611;32;20208;-61
2023/04/23 02:39:29;;;;;;;0.57;0.57;;;;;;;14.37;76.20;94823.25;4400830;32;20218;-61
2023/04/23 02:41:55;;;;;;;1.60;1.07;;;;;;;14.35;76.60;94826.25;4396319;32;20200;-61
2023/04/23 02:44:21;;;;;;;0.30;0.30;;;;;;;14.35;76.87;94831.59;4387665;32;20204;-61
2023/04/23 02:46:46;;;;;;;0.53;0.53;;;;;;;14.36;77.13;94827.81;4393716;32;20210;-61
2023/04/23 02:49:13;;;;;;;0.50;0.50;;;;;;;14.41;76.32;94832.97;4388257;32;20193;-61
2023/04/23 02:51:38;;;;;;;1.13;1.03;;;;;;;14.35;76.58;94834.25;4395800;32;20183;-61
2023/04/23 02:54:04;;;;;;;0.73;0.73;;;;;;;14.32;77.13;94837.59;4371895;32;20299;-61
2023/04/23 02:56:30;;;;;;;0.43;0.43;;;;;;;14.31;77.14;94836.06;4393917;32;20195;-61
2023/04/23 02:58:55;;;;;;;0.60;0.60;;;;;;;14.36;76.86;94843.81;4396862;32;20290;-61
2023/04/23 03:01:21;;;;;;;0.73;0.73;;;;;;;14.46;75.87;94833.87;4391478;32;20242;-61
2023/04/23 03:03:46;;;;;;;0.40;0.40;;;;;;;14.34;76.71;94838.03;4383728;32;20222;-61
2023/04/23 03:06:11;;;;;;;1.07;1.07;;;;;;;14.38;76.19;94835.50;4381684;32;20247;-61
2023/04/23 03:08:37;;;;;;;2.43;1.17;;;;;;;14.35;76.15;94839.59;4386240;32;20226;-61
2023/04/23 03:11:02;;;;;;;0.93;0.77;;;;;;;14.32;76.32;94842.94;4387413;32;20189;-61
2023/04/23 03:13:27;;;;;;;0.63;0.63;;;;;;;14.34;76.89;94840.69;4401803;32;20195;-61
2023/04/23 03:15:53;;;;;;;0.40;0.40;;;;;;;14.33;76.61;94841.84;4393309;32;20197;-61
2023/04/23 03:18:19;;;;;;;0.40;0.40;;;;;;;14.30;76.92;94839.81;4394061;32;20226;-61
2023/04/23 03:20:45;;;;;;;0.60;0.60;;;;;;;14.27;77.07;94840.47;4393410;32;20214;-60
2023/04/23 03:23:10;;;;;;;0.70;0.70;;;;;;;14.25;76.77;94847.25;4396471;32;20204;-61
2023/04/23 03:25:36;;;;;;;0.67;0.67;;;;;;;14.39;76.13;94850.41;4402365;32;20206;-61
2023/04/23 03:28:01;;;;;;;0.63;0.63;;;;;;;14.31;76.01;94845.94;4397680;32;20207;-61
2023/04/23 03:30:28;;;;;;;0.93;0.93;;;;;;;14.28;76.64;94846.59;4389377;32;20236;-61
2023/04/23 03:32:56;;;;;;;0.47;0.47;;;;;;;14.27;76.52;94856.47;4393703;32;20212;-61
2023/04/23 03:35:22;;;;;;;0.73;0.73;;;;;;;14.32;75.96;94850.16;4387474;32;20242;-60
2023/04/23 03:37:48;;;;;;;0.43;0.43;;;;;;;14.40;75.76;94850.09;4385974;32;20203;-60
2023/04/23 03:40:13;;;;;;;0.83;0.83;;;;;;;14.33;75.67;94849.84;4385680;32;20237;-60
2023/04/23 03:42:39;;;;;;;0.40;0.40;;;;;;;14.27;76.21;94851.16;4387208;32;20180;-61
2023/04/23 03:45:05;;;;;;;1.13;1.03;;;;;;;14.36;76.02;94856.37;4391391;32;20192;-61
2023/04/23 03:47:30;;;;;;;0.70;0.70;;;;;;;14.31;76.05;94846.72;4395528;32;20219;-61
2023/04/23 03:49:56;;;;;;;1.27;1.27;;;;;;;14.25;76.14;94857.91;4389023;32;20318;-61
2023/04/23 03:52:21;;;;;;;0.40;0.40;;;;;;;14.32;75.98;94858.19;4389392;32;20282;-61
2023/04/23 03:54:46;;;;;;;0.43;0.43;;;;;;;14.37;75.98;94863.28;4399053;32;20218;-61
2023/04/23 03:57:12;;;;;;;1.93;1.17;;;;;;;14.23;76.30;94866.25;4385482;32;20201;-61
2023/04/23 03:59:37;;;;;;;0.83;0.83;;;;;;;14.21;75.96;94873.78;4381849;32;20245;-61
2023/04/23 04:02:03;;;;;;;0.60;0.60;;;;;;;14.21;76.14;94871.13;4389236;32;20188;-61
2023/04/23 04:04:29;;;;;;;3.10;1.10;;;;;;;14.08;76.06;94866.84;4381859;32;20185;-61
2023/04/23 04:06:59;;;;;;;0.50;0.50;;;;;;;14.09;76.53;94873.75;4392117;32;20277;-60
2023/04/23 04:09:25;;;;;;;0.30;0.30;;;;;;;14.09;76.59;94871.84;4382142;32;20204;-61
2023/04/23 04:11:52;;;;;;;0.30;0.30;;;;;;;13.99;77.07;94871.47;4388478;32;20196;-61
2023/04/23 04:14:17;;;;;;;0.27;0.27;;;;;;;14.16;76.59;94865.97;4391320;32;20224;-61
2023/04/23 04:16:43;;;;;;;0.63;0.63;;;;;;;14.22;76.61;94866.56;4392455;32;20249;-61
2023/04/23 04:19:08;;;;;;;0.57;0.57;;;;;;;14.19;76.68;94877.88;4390048;32;20196;-61
2023/04/23 04:21:33;;;;;;;0.63;0.63;;;;;;;14.17;77.05;94878.22;4398517;32;20244;-61
2023/04/23 04:24:03;;;;;;;0.80;0.80;;;;;;;14.21;77.11;94870.34;4397177;32;20228;-61
2023/04/23 04:26:31;;;;;;;0.77;0.77;;;;;;;14.22;76.80;94877.25;4397628;32;20275;-61
2023/04/23 04:28:57;;;;;;;0.93;0.93;;;;;;;14.15;77.39;94877.75;4399391;32;20185;-60
2023/04/23 04:31:22;;;;;;;1.53;1.20;;;;;;;14.10;77.38;94883.31;4398363;32;20194;-61
2023/04/23 04:33:47;;;;;;;0.40;0.40;;;;;;;14.18;77.38;94887.78;4396532;32;20203;-61
2023/04/23 04:36:13;;;;;;;0.67;0.67;;;;;;;14.11;77.66;94892.88;4397860;32;20184;-61
2023/04/23 04:38:40;;;;;;;0.60;0.60;;;;;;;14.23;78.08;94892.16;4393088;32;20196;-61
2023/04/23 04:41:06;;;;;;;0.53;0.53;;;;;;;14.06;79.88;94893.06;4397931;32;20171;-62
2023/04/23 04:43:33;;;;;;;0.67;0.67;;;;;;;13.95;81.76;94897.22;4389323;32;20254;-60
2023/04/23 04:45:59;;;;;;;0.70;0.70;;;;;;;13.66;83.80;94898.03;4414122;32;20300;-61
2023/04/23 04:48:24;;;;;;;1.03;0.70;;;;;;;13.71;85.67;94909.31;4394504;32;20184;-60
2023/04/23 04:50:50;;;;;;;0.67;0.67;;;;;;;13.69;86.66;94911.50;4392811;32;20190;-61
2023/04/23 04:53:16;;;;;;;0.70;0.70;;;;;;;13.71;87.09;94919.19;4395701;32;20199;-61
2023/04/23 04:55:41;;;;;;;0.40;0.40;;;;;;;13.45;88.91;94919.31;4395265;32;20246;-61
2023/04/23 04:58:07;;;;;;;2.30;0.80;;;;;;;13.36;90.03;94921.22;4380385;32;20177;-61
2023/04/23 05:00:33;;;;;;;0.43;0.43;;;;;;;13.26;90.91;94921.59;4393544;32;20198;-61
2023/04/23 05:02:58;;;;;;;0.40;0.40;;;;;;;13.29;91.44;94923.63;4381972;32;20221;-60
2023/04/23 05:05:25;;;;;;;0.83;0.83;;;;;;;13.19;91.47;94926.63;4395844;32;20198;-60
2023/04/23 05:07:53;;;;;;;2.53;1.40;;;;;;;13.35;91.30;94922.31;4387559;32;20211;-60
2023/04/23 05:10:18;;;;;;;0.83;0.83;;;;;;;13.07;92.24;94924.63;4394751;32;20225;-60
2023/04/23 05:12:43;;;;;;;0.90;0.90;;;;;;;12.97;93.80;94928.38;4392608;32;20185;-60
2023/04/23 05:15:12;;;;;;;0.93;0.93;;;;;;;12.96;94.14;94931.38;4384437;32;20260;-61
2023/04/23 05:17:38;;;;;;;0.77;0.77;;;;;;;12.99;93.45;94928.84;4389172;32;20271;-61
2023/04/23 05:20:04;;;;;;;1.07;0.97;;;;;;;13.05;93.08;94930.25;4386231;32;20251;-60
2023/04/23 05:22:29;;;;;;;0.73;0.73;;;;;;;13.01;93.45;94934.66;4383157;32;20199;-60
2023/04/23 05:24:55;;;;;;;1.27;1.17;;;;;;;13.14;93.10;94934.75;4387757;32;22678;-61
2023/04/23 05:27:20;;;;;;;0.50;0.50;;;;;;;13.10;93.12;94945.25;4390356;32;20184;-60
2023/04/23 05:29:45;;;;;;;0.70;0.70;;;;;;;12.85;94.26;94941.59;4384423;32;20231;-60
2023/04/23 05:32:11;;;;;;;0.43;0.43;;;;;;;12.95;94.21;94935.91;4390304;32;20192;-61
2023/04/23 05:34:36;;;;;;;2.80;0.97;;;;;;;13.04;93.95;94952.66;4397204;32;20188;-61
2023/04/23 05:37:01;;;;;;;0.90;0.90;;;;;;;13.01;94.63;94950.63;4391405;32;20200;-61
2023/04/23 05:39:27;;;;;;;1.63;1.43;;;;;;;12.96;94.71;94953.44;4392882;32;20180;-60
2023/04/23 05:41:52;;;;;;;0.83;0.83;;;;;;;13.09;94.12;94952.47;4392711;32;20188;-61
2023/04/23 05:44:17;;;;;;;1.40;1.30;;;;;;;13.09;94.08;94952.47;4389907;32;20188;-61
2023/04/23 05:46:43;;;;;;;1.33;1.33;;;;;;;13.19;93.07;94961.25;4385256;32;20212;-61
2023/04/23 05:49:08;;;;;;;0.93;0.93;;;;;;;13.09;93.57;94962.37;4394121;32;20183;-61
2023/04/23 05:51:33;;;;;;;1.80;0.93;;;;;;;13.07;93.97;94975.22;4395217;32;20207;-61
2023/04/23 05:53:59;;;;;;;0.50;0.50;;;;;;;12.98;94.27;94967.22;4401582;32;20184;-61
2023/04/23 05:56:24;;;;;;;2.77;2.00;;;;;;;13.03;93.95;94964.41;4396392;32;20188;-61
2023/04/23 05:58:50;;;;;;;1.40;1.17;;;;;;;12.99;94.31;94971.47;4399407;32;20198;-61
2023/04/23 06:01:15;;;;;;;1.03;1.03;;;;;;;13.08;94.59;94961.59;4397365;32;20176;-60
2023/04/23 06:03:44;;;;;;;0.87;0.87;;;;;;;13.00;95.36;94962.37;4389999;32;20176;-60
2023/04/23 06:06:10;;;;;;;23.80;1.27;;;;;;;13.17;94.62;94963.44;4395161;32;20173;-61
2023/04/23 06:08:35;;;;;;;1.30;1.30;;;;;;;13.06;94.79;94963.78;4397952;32;20199;-62
2023/04/23 06:11:01;;;;;;;1.10;1.10;;;;;;;13.15;95.18;94965.63;4392905;32;20184;-60
2023/04/23 06:13:27;;;;;;;0.97;0.97;;;;;;;13.11;95.75;94970.00;4391753;32;20267;-61
2023/04/23 06:15:52;;;;;;;1.57;1.50;;;;;;;12.96;96.88;94969.44;4384490;32;20243;-61
2023/04/23 06:18:18;;;;;;;1.10;1.00;;;;;;;12.92;96.77;94968.47;4394727;32;20202;-60
2023/04/23 06:20:43;;;;;;;1.07;1.07;;;;;;;12.84;96.41;94974.62;4397367;32;20199;-61
2023/04/23 06:23:11;;;;;;;1.63;1.30;;;;;;;12.76;97.35;94970.09;4389185;32;20212;-61
2023/04/23 06:25:36;;;;;;;1.57;1.57;;;;;;;12.83;97.67;94973.06;4397708;32;20179;-61
2023/04/23 06:28:02;;;;;;;2.37;0.90;;;;;;;12.85;98.34;94978.84;4397155;32;20191;-61
2023/04/23 06:30:27;;;;;;;1.63;1.63;;;;;;;12.86;98.23;94983.09;4388387;32;20195;-61
2023/04/23 06:32:52;;;;;;;0.83;0.83;;;;;;;12.82;98.48;94978.69;4398483;32;20207;-61
2023/04/23 06:35:18;;;;;;;1.33;1.23;;;;;;;12.81;98.86;94982.44;4383051;32;20212;-60
2023/04/23 06:37:43;;;;;;;0.90;0.90;;;;;;;12.83;99.34;94983.72;4384193;32;20188;-60
2023/04/23 06:40:09;;;;;;;1.03;1.03;;;;;;;12.74;99.11;94988.25;4395955;32;20207;-61
2023/04/23 06:42:34;;;;;;;0.83;0.83;;;;;;;12.78;99.71;94983.88;4394364;32;20268;-60
2023/04/23 06:45:03;;;;;;;0.90;0.90;;;;;;;12.78;99.91;94983.88;4396821;32;20188;-60
2023/04/23 06:47:28;;;;;;;1.07;1.07;;;;;;;12.84;100.00;94982.62;4382543;32;20184;-60
2023/04/23 06:49:53;;;;;;;0.97;0.97;;;;;;;12.75;100.00;94973.84;4399940;32;20184;-60
2023/04/23 06:52:19;;;;;;;3.23;1.80;;;;;;;12.61;100.00;94978.56;4383112;32;20246;-61
2023/04/23 06:54:44;;;;;;;0.80;0.80;;;;;;;12.64;100.00;94978.72;4388320;32;20208;-60
2023/04/23 06:57:09;;;;;;;1.20;1.10;;;;;;;12.73;100.00;94976.03;4398155;32;20188;-60
2023/04/23 06:59:35;;;;;;;1.00;1.00;;;;;;;12.53;100.00;94974.00;4396562;32;20184;-60
2023/04/23 07:02:00;;;;;;;1.10;1.10;;;;;;;12.66;100.00;94973.09;4385843;32;20233;-60
2023/04/23 07:04:25;;;;;;;2.10;1.20;;;;;;;12.63;100.00;94973.72;4388185;32;20286;-60
2023/04/23 07:06:51;;;;;;;1.23;1.23;;;;;;;12.73;100.00;94968.03;4392625;32;20188;-60
2023/04/23 07:09:16;;;;;;;1.13;1.13;;;;;;;12.63;100.00;94965.72;4383896;32;20215;-61
2023/04/23 07:11:41;;;;;;;1.43;1.33;;;;;;;12.60;100.00;94958.38;4379205;32;20251;-61
2023/04/23 07:14:07;;;;;;;1.03;1.03;;;;;;;12.59;100.00;94954.13;4384868;32;20203;-61
2023/04/23 07:16:33;;;;;;;0.70;0.70;;;;;;;12.54;100.00;94963.06;4401890;32;20179;-60
2023/04/23 07:19:01;;;;;;;1.40;1.40;;;;;;;12.68;100.00;94962.87;4397074;32;20180;-60
2023/04/23 07:21:27;;;;;;;1.27;1.27;;;;;;;12.58;100.00;94961.34;4392701;32;20188;-61
2023/04/23 07:24:05;;;;;;;1.53;1.50;;;;;;;12.69;100.00;94953.81;4394321;32;20228;-60
2023/04/23 07:26:34;;;;;;;0.70;0.70;;;;;;;12.70;100.00;94958.03;4389471;32;20209;-60
2023/04/23 07:29:00;;;;;;;1.47;1.20;;;;;;;12.67;100.00;94956.03;4397500;32;20184;-61
2023/04/23 07:31:27;;;;;;;2.90;1.30;;;;;;;12.59;100.00;94959.47;4391193;32;20352;-61
2023/04/23 07:33:54;;;;;;;1.17;1.17;;;;;;;12.66;100.00;94960.56;4400906;32;20250;-61
2023/04/23 07:36:19;;;;;;;0.63;0.63;;;;;;;12.66;100.00;94965.09;4398796;32;20224;-60
2023/04/23 07:38:44;;;;;;;1.83;1.30;;;;;;;12.76;100.00;94970.09;4386116;32;20176;-60
2023/04/23 07:41:10;;;;;;;0.83;0.83;;;;;;;12.70;100.00;94972.13;4386744;32;20181;-59
2023/04/23 07:43:35;;;;;;;1.53;1.43;;;;;;;13.15;100.00;94970.94;4391938;32;20177;-60
2023/04/23 07:46:01;;;;;;;1.07;0.83;;;;;;;13.47;100.00;94965.09;4390429;32;20232;-60
2023/04/23 07:48:26;;;;;;;7.10;2.10;;;;;;;13.51;100.00;94965.22;4403637;32;20199;-59
2023/04/23 07:50:52;;;;;;;1.60;1.10;;;;;;;13.73;99.88;94959.59;4397007;32;20236;-59
2023/04/23 07:53:17;;;;;;;1.43;1.20;;;;;;;13.97;98.25;94959.00;4389121;32;20185;-60
2023/04/23 07:55:43;;;;;;;0.70;0.70;;;;;;;13.97;97.88;94969.69;4385248;32;20248;-59
2023/04/23 07:58:08;;;;;;;0.73;0.73;;;;;;;13.95;97.11;94966.56;4386207;32;20238;-59
2023/04/23 08:00:35;;;;;;;3.03;1.53;;;;;;;14.07;96.66;94971.97;4396456;32;20233;-59
2023/04/23 08:03:00;;;;;;;1.20;1.03;;;;;;;14.05;96.56;94968.84;4404703;32;20188;-59
2023/04/23 08:05:26;;;;;;;0.73;0.73;;;;;;;14.09;96.04;94967.88;4386284;32;20255;-59
2023/04/23 08:07:51;;;;;;;1.30;1.20;;;;;;;14.09;96.49;94969.78;4385756;32;20188;-59
2023/04/23 08:10:16;;;;;;;0.60;0.60;;;;;;;13.92;96.64;94973.34;4389082;32;20198;-59
2023/04/23 08:12:43;;;;;;;0.87;0.87;;;;;;;14.09;95.88;94972.44;4384541;32;20254;-59
2023/04/23 08:15:09;;;;;;;1.30;1.17;;;;;;;14.19;95.52;94971.25;4391335;32;20180;-60
2023/04/23 08:17:34;;;;;;;6.93;1.73;;;;;;;14.04;95.45;94968.06;4412002;32;20199;-60
2023/04/23 08:19:59;;;;;;;1.10;1.10;;;;;;;14.05;95.80;94966.97;4390292;32;20180;-60
2023/04/23 08:22:24;;;;;;;1.00;1.00;;;;;;;14.22;95.97;94957.28;4389756;32;20200;-60
2023/04/23 08:24:50;;;;;;;1.13;1.13;;;;;;;14.27;95.42;94955.22;4385738;32;20177;-60
2023/04/23 08:27:15;;;;;;;0.50;0.50;;;;;;;14.05;95.54;94948.28;4390848;32;20203;-60
2023/04/23 08:29:40;;;;;;;1.57;1.47;;;;;;;14.22;95.54;94946.63;4397762;32;20241;-60
2023/04/23 08:32:06;;;;;;;1.10;1.10;;;;;;;14.25;95.20;94941.41;4377411;32;20314;-63
2023/04/23 08:34:31;;;;;;;3.90;1.30;;;;;;;14.30;94.82;94941.22;4399747;32;20206;-60
2023/04/23 08:36:56;;;;;;;0.83;0.77;;;;;;;14.38;94.01;94932.34;4374086;32;20188;-60
2023/04/23 08:39:22;;;;;;;1.27;1.17;;;;;;;14.47;93.90;94935.00;4371504;32;20212;-60
2023/04/23 08:41:56;;;;;;;0.70;0.70;;;;;;;14.52;93.09;94942.03;4387474;32;20219;-60
2023/04/23 08:44:24;;;;;;;1.50;1.40;;;;;;;14.71;91.84;94940.44;4373459;32;20194;-60
2023/04/23 08:46:51;;;;;;;0.90;0.90;;;;;;;14.91;90.22;94940.72;4374579;32;20208;-60
2023/04/23 08:49:17;;;;;;;1.70;1.43;;;;;;;14.95;88.81;94939.72;4390970;32;20255;-60
2023/04/23 08:51:53;;;;;;;1.63;1.40;;;;;;;14.99;89.28;94934.50;4390953;32;20223;-59
2023/04/23 08:54:25;;;;;;;0.83;0.83;;;;;;;15.03;88.99;94927.38;4398153;32;20189;-60
2023/04/23 08:56:54;;;;;;;0.63;0.63;;;;;;;15.10;89.07;94931.09;4372060;32;20220;-60
2023/04/23 08:59:21;;;;;;;1.23;1.13;;;;;;;15.27;88.71;94932.00;4378285;32;20227;-59
2023/04/23 09:01:47;;;;;;;1.00;1.00;;;;;;;15.30;87.96;94934.00;4378327;32;20195;-60
2023/04/23 09:04:15;;;;;;;1.10;1.10;;;;;;;15.19;87.58;94938.19;4396115;32;20239;-59
2023/04/23 09:06:42;;;;;;;0.80;0.80;;;;;;;15.06;88.07;94935.53;4381611;32;20179;-59
2023/04/23 09:09:08;;;;;;;0.70;0.70;;;;;;;15.18;87.80;94932.06;4391930;32;20189;-59
2023/04/23 09:11:36;;;;;;;1.13;1.00;;;;;;;15.33;87.38;94928.00;4382243;32;20239;-59
2023/04/23 09:14:01;;;;;;;0.87;0.87;;;;;;;15.30;87.85;94926.78;4371165;32;20196;-59
2023/04/23 09:16:27;;;;;;;0.63;0.63;;;;;;;15.39;87.23;94929.31;4377952;32;20180;-59
2023/04/23 09:18:52;;;;;;;2.20;1.60;;;;;;;15.51;87.61;94925.91;4395426;32;20215;-59
2023/04/23 09:21:19;;;;;;;0.80;0.80;;;;;;;15.51;87.13;94921.31;4392437;32;20192;-59
2023/04/23 09:23:44;;;;;;;0.80;0.80;;;;;;;15.62;86.73;94919.00;4396101;32;20246;-59
2023/04/23 09:26:19;;;;;;;1.17;1.17;;;;;;;15.46;86.63;94910.84;4389340;32;20184;-59
2023/04/23 09:28:49;;;;;;;3.27;3.00;;;;;;;15.40;86.99;94912.16;4382711;32;20188;-59
2023/04/23 09:31:18;;;;;;;4.67;2.03;;;;;;;15.52;87.63;94912.19;4380523;32;20172;-60
2023/04/23 09:33:50;;;;;;;1.60;1.50;;;;;;;15.78;87.11;94907.31;4389332;32;20255;-60
2023/04/23 09:36:15;;;;;;;1.00;1.00;;;;;;;15.80;85.50;94901.59;4388127;32;20261;-60
2023/04/23 09:38:41;;;;;;;2.37;1.60;;;;;;;15.67;85.42;94906.19;4375919;32;20180;-60
2023/04/23 09:41:26;;;;;;;0.73;0.73;;;;;;;15.62;85.72;94903.75;4376660;32;20275;-63
2023/04/23 09:43:55;;;;;;;17.83;1.73;;;;;;;15.34;86.76;94900.16;4395910;32;20184;-59
2023/04/23 09:46:42;;;;;;;1.50;0.93;;;;;;;15.77;85.95;94905.75;4380309;32;20210;-60
2023/04/23 09:49:09;;;;;;;0.80;0.80;;;;;;;15.97;83.39;94901.37;4380879;32;20220;-60
2023/04/23 09:51:39;;;;;;;1.13;1.10;;;;;;;15.76;82.72;94892.72;4382384;32;20195;-59
2023/04/23 09:54:20;;;;;;;0.80;0.80;;;;;;;15.92;83.52;94890.12;4400794;32;20187;-59
2023/04/23 09:56:50;;;;;;;2.37;1.10;;;;;;;15.38;82.78;94891.12;4382165;32;20224;-60
2023/04/23 09:59:27;;;;;;;0.53;0.53;;;;;;;15.42;85.10;94893.91;4386887;32;20191;-59
2023/04/23 10:01:53;;;;;;;0.80;0.80;;;;;;;15.66;83.99;94888.59;4397497;32;20181;-59
2023/04/23 10:04:23;;;;;;;3.13;1.57;;;;;;;15.72;82.43;94887.25;4379953;32;20214;-60
2023/04/23 10:06:59;;;;;;;0.50;0.50;;;;;;;15.88;82.31;94884.66;4379710;32;20241;-60
2023/04/23 10:09:27;;;;;;;1.17;1.07;;;;;;;15.56;82.41;94886.37;4407042;32;20206;-59
2023/04/23 10:11:54;;;;;;;2.90;0.80;;;;;;;15.66;82.42;94888.59;4396710;32;20180;-59
2023/04/23 10:14:24;;;;;;;0.60;0.60;;;;;;;15.51;83.79;94881.22;4387773;32;20190;-59
2023/04/23 10:16:51;;;;;;;0.60;0.60;;;;;;;15.31;83.80;94876.75;4402262;32;20207;-59
2023/04/23 10:19:21;;;;;;;1.20;1.10;;;;;;;15.58;83.30;94872.69;4398539;32;20188;-59
2023/04/23 10:21:49;;;;;;;0.60;0.60;;;;;;;15.67;84.03;94870.66;4399275;32;20195;-59
2023/04/23 10:24:19;;;;;;;1.20;1.20;;;;;;;15.76;83.29;94865.97;4395732;32;20184;-59
2023/04/23 10:26:45;;;;;;;0.97;0.97;;;;;;;15.71;82.36;94866.19;4392003;32;20180;-59
2023/04/23 10:29:17;;;;;;;0.67;0.67;;;;;;;15.71;81.51;94864.28;4380922;32;20204;-59
2023/04/23 10:31:44;;;;;;;0.80;0.80;;;;;;;15.67;81.17;94862.63;4381344;32;20227;-59
2023/04/23 10:34:10;;;;;;;0.20;0.20;;;;;;;15.62;81.82;94855.59;4381450;32;20180;-59
2023/04/23 10:36:38;;;;;;;0.60;0.60;;;;;;;15.72;81.12;94867.75;4391998;32;20289;-59
2023/04/23 10:39:07;;;;;;;0.83;0.83;;;;;;;15.61;81.86;94864.75;4395035;32;20181;-59
2023/04/23 10:41:38;;;;;;;0.60;0.60;;;;;;;15.53;83.12;94856.81;4391547;32;20176;-59
2023/04/23 10:44:15;;;;;;;0.57;0.57;;;;;;;15.77;82.28;94862.97;4383683;32;20233;-59
2023/04/23 10:46:56;;;;;;;0.60;0.60;;;;;;;15.91;81.26;94856.47;4395374;32;20207;-59
2023/04/23 10:49:23;;;;;;;0.40;0.40;;;;;;;15.82;79.67;94856.56;4382382;32;20222;-59
2023/04/23 10:51:58;;;;;;;1.17;1.17;;;;;;;15.80;81.83;94859.59;4398374;32;20192;-59
2023/04/23 10:54:28;;;;;;;0.97;0.60;;;;;;;15.79;81.59;94847.31;4393015;32;20214;-59
2023/04/23 10:56:58;;;;;;;0.83;0.60;;;;;;;15.77;80.16;94841.56;4401601;32;20231;-59
2023/04/23 10:59:24;;;;;;;0.70;0.70;;;;;;;15.87;82.09;94844.88;4391972;32;20234;-59
2023/04/23 11:01:50;;;;;;;0.90;0.90;;;;;;;15.70;81.08;94835.22;4376931;32;20224;-59
2023/04/23 11:04:20;;;;;;;1.23;1.10;;;;;;;15.91;81.50;94829.69;4374364;32;20191;-59
2023/04/23 11:06:48;;;;;;;0.73;0.73;;;;;;;16.08;80.54;94826.75;4374906;32;20185;-59
2023/04/23 11:09:29;;;;;;;0.97;0.97;;;;;;;16.29;78.18;94823.88;4385608;32;20220;-59
2023/04/23 11:11:56;;;;;;;0.40;0.40;;;;;;;16.38;78.40;94816.50;4393147;32;20187;-59
2023/04/23 11:14:36;;;;;;;0.73;0.73;;;;;;;16.22;78.55;94811.06;4406078;32;20308;-59
2023/04/23 11:17:03;;;;;;;0.97;0.97;;;;;;;15.97;78.19;94810.41;4370422;32;20175;-59
2023/04/23 11:19:29;;;;;;;0.70;0.70;;;;;;;15.90;77.78;94806.75;4380193;32;20203;-59
2023/04/23 11:21:58;;;;;;;1.07;0.63;;;;;;;15.90;78.02;94796.03;4385590;32;20230;-59
2023/04/23 11:24:43;;;;;;;0.30;0.30;;;;;;;16.06;78.31;94789.63;4391414;32;20223;-59
2023/04/23 11:27:16;;;;;;;0.77;0.77;;;;;;;16.15;76.96;94784.12;4390840;32;20301;-59
2023/04/23 11:29:43;;;;;;;0.70;0.70;;;;;;;16.26;75.84;94787.87;4391227;32;20305;-59